createdAt,value
2024-03-10T00:01:11.402Z,35.60
2024-03-10T00:03:59.826Z,35.80
2024-03-10T00:06:28.169Z,36.50
2024-03-10T00:08:56.402Z,36.90
2024-03-10T00:11:24.767Z,36.10
2024-03-10T00:13:56.674Z,33.80
2024-03-10T00:16:24.994Z,40.20
2024-03-10T00:18:53.808Z,34.90
2024-03-10T00:21:24.114Z,35.90
2024-03-10T00:23:52.407Z,31.30
2024-03-10T00:26:20.810Z,38.00
2024-03-10T00:28:50.750Z,33.50
2024-03-10T00:31:19.724Z,32.80
2024-03-10T00:33:47.985Z,31.70
2024-03-10T00:36:20.125Z,34.40
2024-03-10T00:38:48.296Z,35.20
2024-03-10T00:41:21.336Z,34.10
2024-03-10T00:43:50.565Z,34.60
2024-03-10T00:46:19.291Z,36.00
2024-03-10T00:48:47.562Z,35.80
2024-03-10T00:51:16.000Z,36.20
2024-03-10T00:53:44.258Z,34.80
2024-03-10T00:56:16.520Z,37.80
2024-03-10T00:58:44.769Z,38.40
2024-03-10T01:01:13.465Z,33.20
2024-03-10T01:03:42.238Z,30.00
2024-03-10T01:06:13.786Z,29.60
2024-03-10T01:08:42.138Z,33.40
2024-03-10T01:11:12.142Z,30.10
2024-03-10T01:13:40.929Z,33.00
2024-03-10T01:16:09.391Z,35.70
2024-03-10T01:18:38.568Z,37.30
2024-03-10T01:21:11.818Z,33.80
2024-03-10T01:23:40.323Z,32.90
2024-03-10T01:26:09.923Z,34.20
2024-03-10T01:28:39.165Z,33.70
2024-03-10T01:31:11.011Z,33.00
2024-03-10T01:33:41.807Z,30.20
2024-03-10T01:36:10.216Z,30.10
2024-03-10T01:38:40.508Z,30.50
2024-03-10T01:41:08.862Z,32.60
2024-03-10T01:43:37.150Z,29.50
2024-03-10T01:46:09.020Z,34.10
2024-03-10T01:48:39.186Z,32.60
2024-03-10T01:51:08.515Z,33.30
2024-03-10T01:53:38.971Z,30.80
2024-03-10T01:56:09.180Z,32.70
2024-03-10T01:58:41.675Z,33.50
2024-03-10T02:01:11.094Z,31.80
2024-03-10T02:06:11.833Z,31.50
2024-03-10T02:08:40.689Z,29.10
2024-03-10T02:11:11.789Z,34.40
2024-03-10T02:13:40.320Z,28.70
2024-03-10T02:16:10.301Z,30.10
2024-03-10T02:18:39.617Z,32.10
2024-03-10T02:21:10.838Z,36.00
2024-03-10T02:23:51.113Z,56.30
2024-03-10T02:26:19.424Z,43.10
2024-03-10T02:29:07.913Z,43.90
2024-03-10T02:31:55.194Z,38.80
2024-03-10T02:34:54.326Z,37.50
2024-03-10T02:37:41.251Z,38.60
2024-03-10T02:40:29.700Z,37.40
2024-03-10T02:43:16.637Z,32.40
2024-03-10T02:46:03.476Z,33.30
2024-03-10T02:48:31.771Z,31.90
2024-03-10T02:51:00.003Z,35.90
2024-03-10T02:53:28.304Z,34.90
2024-03-10T02:55:56.618Z,32.70
2024-03-10T02:58:27.640Z,30.50
2024-03-10T03:00:56.481Z,31.30
2024-03-10T03:03:26.945Z,34.20
2024-03-10T03:05:55.205Z,34.10
2024-03-10T03:08:23.447Z,30.90
2024-03-10T03:10:53.948Z,35.00
2024-03-10T03:13:22.372Z,34.40
2024-03-10T03:15:51.917Z,37.20
2024-03-10T03:20:48.611Z,34.80
2024-03-10T03:23:19.162Z,33.00
2024-03-10T03:25:54.690Z,31.10
2024-03-10T03:28:22.986Z,33.40
2024-03-10T03:30:51.450Z,33.30
2024-03-10T03:33:21.607Z,30.60
2024-03-10T03:35:49.988Z,29.60
2024-03-10T03:38:18.637Z,27.50
2024-03-10T03:40:49.483Z,31.50
2024-03-10T03:43:18.247Z,35.00
2024-03-10T03:45:46.376Z,35.00
2024-03-10T03:48:17.575Z,33.10
2024-03-10T03:50:47.816Z,32.40
2024-03-10T03:53:16.054Z,32.90
2024-03-10T03:55:44.340Z,30.50
2024-03-10T03:58:12.766Z,35.00
2024-03-10T04:00:42.300Z,33.60
2024-03-10T04:03:11.357Z,33.00
2024-03-10T04:08:12.930Z,32.00
2024-03-10T04:10:41.515Z,31.50
2024-03-10T04:13:10.491Z,30.20
2024-03-10T04:15:39.485Z,34.10
2024-03-10T04:18:08.661Z,32.30
2024-03-10T04:20:37.207Z,32.90
2024-03-10T04:23:06.872Z,31.50
2024-03-10T04:25:35.799Z,30.70
2024-03-10T04:28:04.689Z,31.40
2024-03-10T04:30:36.030Z,33.70
2024-03-10T04:33:04.832Z,31.60
2024-03-10T04:35:36.435Z,35.20
2024-03-10T04:38:06.300Z,34.00
2024-03-10T04:40:34.611Z,36.20
2024-03-10T04:43:03.025Z,34.30
2024-03-10T04:45:31.177Z,34.10
2024-03-10T04:48:00.068Z,36.30
2024-03-10T04:50:28.497Z,36.50
2024-03-10T04:52:59.245Z,32.40
2024-03-10T04:55:28.127Z,32.60
2024-03-10T04:57:59.494Z,33.20
2024-03-10T05:00:27.870Z,36.80
2024-03-10T05:02:56.035Z,32.00
2024-03-10T05:05:24.403Z,31.80
2024-03-10T05:07:53.202Z,31.30
2024-03-10T05:10:21.583Z,34.40
2024-03-10T05:12:49.827Z,31.00
2024-03-10T05:15:18.709Z,34.20
2024-03-10T05:17:47.098Z,34.30
2024-03-10T05:20:19.747Z,35.40
2024-03-10T05:22:48.105Z,31.50
2024-03-10T05:25:16.820Z,32.80
2024-03-10T05:27:46.999Z,31.00
2024-03-10T05:30:16.633Z,28.70
2024-03-10T05:35:15.554Z,31.20
2024-03-10T05:37:43.942Z,33.50
2024-03-10T05:40:12.898Z,32.30
2024-03-10T05:42:41.198Z,27.20
2024-03-10T05:45:09.736Z,31.20
2024-03-10T05:47:38.326Z,31.20
2024-03-10T05:50:08.443Z,30.80
2024-03-10T05:52:36.763Z,34.20
2024-03-10T05:55:08.620Z,32.00
2024-03-10T05:57:37.520Z,30.80
2024-03-10T06:00:07.782Z,29.80
2024-03-10T06:02:49.438Z,28.30
2024-03-10T06:05:18.216Z,32.10
2024-03-10T06:07:46.924Z,28.70
2024-03-10T06:10:15.226Z,27.90
2024-03-10T06:12:45.911Z,28.90
2024-03-10T06:15:17.735Z,29.20
2024-03-10T06:18:03.653Z,28.10
2024-03-10T06:20:51.095Z,25.60
2024-03-10T06:23:54.308Z,25.50
2024-03-10T06:26:25.303Z,27.10
2024-03-10T06:28:53.736Z,24.90
2024-03-10T06:31:26.821Z,27.60
2024-03-10T06:33:58.862Z,25.70
2024-03-10T06:36:28.596Z,27.90
2024-03-10T06:38:58.409Z,27.90
2024-03-10T06:41:27.433Z,27.70
2024-03-10T06:43:56.485Z,25.70
2024-03-10T06:46:25.072Z,26.20
2024-03-10T06:48:53.577Z,23.90
2024-03-10T06:51:24.684Z,28.30
2024-03-10T06:53:53.017Z,27.70
2024-03-10T06:56:21.784Z,25.60
2024-03-10T06:58:55.412Z,25.90
2024-03-10T07:01:23.944Z,24.30
2024-03-10T07:03:54.185Z,23.30
2024-03-10T07:06:23.170Z,27.80
2024-03-10T07:08:51.458Z,24.60
2024-03-10T07:11:23.607Z,28.30
2024-03-10T07:13:52.066Z,26.60
2024-03-10T07:16:20.999Z,25.90
2024-03-10T07:18:49.192Z,28.10
2024-03-10T07:21:18.503Z,27.10
2024-03-10T07:23:46.723Z,27.50
2024-03-10T07:26:14.942Z,25.20
2024-03-10T07:28:43.092Z,25.80
2024-03-10T07:31:15.837Z,24.70
2024-03-10T07:33:43.991Z,26.50
2024-03-10T07:36:14.264Z,24.10
2024-03-10T07:38:42.478Z,22.20
2024-03-10T07:41:13.015Z,20.80
2024-03-10T07:43:45.077Z,18.70
2024-03-10T07:46:13.681Z,17.50
2024-03-10T07:48:45.774Z,19.00
2024-03-10T07:51:16.535Z,17.50
2024-03-10T07:53:44.701Z,17.30
2024-03-10T07:56:12.871Z,17.60
2024-03-10T07:58:41.269Z,17.40
2024-03-10T08:01:12.217Z,18.40
2024-03-10T08:03:40.359Z,17.50
2024-03-10T08:06:09.081Z,17.10
2024-03-10T08:08:37.899Z,17.20
2024-03-10T08:11:06.228Z,16.20
2024-03-10T08:13:34.332Z,14.90
2024-03-10T08:16:05.007Z,13.50
2024-03-10T08:18:33.726Z,16.30
2024-03-10T08:21:02.107Z,15.70
2024-03-10T08:23:30.471Z,17.40
2024-03-10T08:26:01.403Z,13.00
2024-03-10T08:28:29.891Z,13.00
2024-03-10T08:31:00.148Z,13.70
2024-03-10T08:33:31.136Z,12.70
2024-03-10T08:35:59.893Z,12.00
2024-03-10T08:38:28.356Z,12.60
2024-03-10T10:58:53.930Z,13.30
2024-03-10T11:01:22.754Z,10.20
2024-03-10T11:03:55.757Z,15.00
2024-03-10T11:06:25.438Z,11.20
2024-03-10T11:08:58.840Z,12.50
2024-03-10T11:11:44.459Z,11.20
2024-03-10T11:14:15.295Z,11.10
2024-03-10T11:16:44.768Z,11.30
2024-03-10T11:19:19.350Z,10.30
2024-03-10T11:21:51.979Z,10.00
2024-03-10T11:24:23.869Z,9.20
2024-03-10T11:27:21.089Z,10.70
2024-03-10T11:29:53.047Z,9.50
2024-03-10T11:32:37.024Z,10.70
2024-03-10T11:35:30.446Z,11.40
2024-03-10T11:38:01.035Z,9.00
2024-03-10T11:40:31.796Z,9.30
2024-03-10T11:43:03.046Z,7.80
2024-03-10T11:45:42.306Z,10.20
2024-03-10T11:48:10.729Z,8.30
2024-03-10T11:50:42.420Z,8.90
2024-03-10T11:53:13.929Z,7.40
2024-03-10T11:55:45.595Z,7.60
2024-03-10T11:58:16.091Z,7.90
2024-03-10T12:00:44.521Z,7.60
2024-03-10T12:03:15.226Z,7.50
2024-03-10T12:05:44.661Z,8.50
2024-03-10T12:08:14.628Z,8.10
2024-03-10T12:10:43.016Z,7.30
2024-03-10T12:13:20.135Z,8.90
2024-03-10T12:15:54.800Z,8.30
2024-03-10T12:18:23.586Z,8.10
2024-03-10T12:20:54.870Z,7.90
2024-03-10T12:23:25.869Z,10.10
2024-03-10T12:25:55.799Z,9.50
2024-03-10T12:28:27.260Z,7.80
2024-03-10T12:31:02.456Z,7.70
2024-03-10T12:33:30.762Z,8.20
2024-03-10T12:36:02.161Z,8.60
2024-03-10T12:42:26.348Z,9.00
2024-03-10T12:45:01.904Z,8.10
2024-03-10T12:52:00.631Z,8.40
2024-03-10T12:59:01.407Z,9.60
2024-03-10T13:05:14.660Z,8.90
2024-03-10T13:14:24.767Z,9.20
2024-03-10T15:53:27.695Z,4.30
2024-03-10T15:55:57.770Z,5.20
2024-03-10T15:58:26.280Z,4.60
2024-03-10T16:00:54.650Z,6.40
2024-03-10T16:03:35.720Z,4.70
2024-03-10T16:06:04.169Z,5.70
2024-03-10T16:08:35.044Z,7.80
2024-03-10T16:11:03.716Z,5.30
2024-03-10T16:13:40.645Z,6.10
2024-03-10T16:16:11.814Z,7.10
2024-03-10T16:18:40.884Z,8.70
2024-03-10T16:21:13.698Z,7.50
2024-03-10T16:23:43.430Z,8.80
2024-03-10T16:26:12.408Z,8.00
2024-03-10T16:28:40.715Z,9.60
2024-03-10T16:31:10.339Z,10.50
2024-03-10T16:33:38.655Z,10.70
2024-03-10T16:36:07.369Z,13.50
2024-03-10T16:38:38.467Z,12.40
2024-03-10T16:41:08.563Z,9.60
2024-03-10T16:43:40.234Z,10.70
2024-03-10T16:46:08.552Z,12.10
2024-03-10T16:48:37.018Z,9.80
2024-03-10T16:51:10.119Z,9.60
2024-03-10T16:53:38.880Z,11.70
2024-03-10T16:56:08.643Z,10.00
2024-03-10T16:58:39.328Z,9.60
2024-03-10T17:01:11.178Z,10.70
2024-03-10T17:03:42.265Z,9.80
2024-03-10T17:06:13.207Z,10.50
2024-03-10T17:08:41.572Z,10.20
2024-03-10T17:11:10.101Z,10.20
2024-03-10T17:13:38.756Z,9.00
2024-03-10T17:16:10.106Z,9.80
2024-03-10T17:18:40.709Z,8.30
2024-03-10T17:21:09.113Z,9.90
2024-03-10T17:23:37.538Z,9.20
2024-03-10T17:26:06.016Z,9.50
2024-03-10T17:28:35.166Z,10.20
2024-03-10T17:31:03.333Z,10.40
2024-03-10T17:33:31.723Z,11.10
2024-03-10T17:36:00.916Z,13.90
2024-03-10T17:38:33.433Z,14.50
2024-03-10T17:41:01.862Z,13.20
2024-03-10T17:43:30.122Z,13.60
2024-03-10T17:45:58.440Z,12.80
2024-03-10T17:48:27.013Z,14.20
2024-03-10T17:50:55.228Z,15.30
2024-03-10T17:53:24.185Z,13.60
2024-03-10T17:55:52.517Z,11.70
2024-03-10T17:58:20.836Z,12.80
2024-03-10T18:09:00.265Z,12.90
2024-03-10T18:19:33.561Z,14.50
2024-03-10T20:31:49.095Z,18.50
2024-03-10T20:34:24.180Z,15.30
2024-03-10T20:36:52.586Z,18.40
2024-03-10T20:39:21.010Z,19.40
2024-03-10T20:41:49.468Z,20.30
2024-03-10T20:44:18.013Z,18.00
2024-03-10T20:46:46.379Z,21.70
2024-03-10T20:49:15.363Z,18.70
2024-03-10T20:51:43.718Z,18.80
2024-03-10T20:54:12.575Z,19.90
2024-03-10T20:56:40.887Z,20.90
2024-03-10T20:59:09.430Z,22.80
2024-03-10T21:01:40.392Z,20.90
2024-03-10T21:04:08.753Z,20.10
2024-03-10T21:06:38.494Z,19.80
2024-03-10T21:09:06.842Z,19.00
2024-03-10T21:11:35.218Z,19.00
2024-03-10T21:14:03.831Z,18.70
2024-03-10T21:16:32.183Z,17.60
2024-03-10T21:19:00.792Z,18.10
2024-03-10T21:21:31.233Z,17.40
2024-03-10T21:23:59.522Z,18.70
2024-03-10T21:26:30.190Z,19.40
2024-03-10T21:28:58.798Z,18.80
2024-03-10T21:31:30.044Z,19.30
2024-03-10T21:33:58.419Z,19.70
2024-03-10T21:36:26.731Z,19.10
2024-03-10T21:38:54.993Z,18.90
2024-03-10T21:41:23.439Z,19.80
2024-03-10T21:43:53.234Z,19.10
2024-03-10T21:46:21.824Z,18.50
2024-03-10T21:48:49.962Z,18.10
2024-03-10T21:51:18.227Z,19.10
2024-03-10T21:53:48.375Z,18.10
2024-03-10T21:56:19.049Z,21.10
2024-03-10T21:58:47.388Z,21.50
2024-03-10T22:01:15.594Z,20.10
2024-03-10T22:03:46.456Z,17.50
2024-03-10T22:06:14.626Z,18.00
2024-03-10T22:08:44.145Z,18.00
2024-03-10T22:13:41.764Z,18.10
2024-03-10T22:16:10.447Z,19.30
2024-03-10T22:18:38.683Z,18.20
2024-03-10T22:21:07.033Z,20.70
2024-03-10T22:23:35.396Z,19.50
2024-03-10T22:26:07.654Z,19.90
2024-03-10T22:28:36.177Z,20.10
2024-03-10T22:31:05.369Z,20.00
2024-03-10T22:33:33.638Z,18.70
2024-03-10T22:36:05.517Z,19.50
2024-03-10T22:41:02.875Z,18.10
2024-03-10T22:43:31.095Z,17.50
2024-03-10T22:45:59.564Z,18.40
2024-03-10T22:48:28.423Z,16.70
2024-03-10T22:50:56.787Z,19.40
2024-03-10T22:53:25.072Z,18.30
2024-03-10T22:55:53.745Z,18.80
2024-03-10T22:58:22.023Z,15.90
2024-03-10T23:00:56.357Z,16.60
2024-03-10T23:03:24.827Z,18.40
2024-03-10T23:05:54.433Z,19.40
2024-03-10T23:08:24.131Z,17.50
2024-03-10T23:10:52.957Z,17.00
2024-03-10T23:13:21.524Z,19.30
2024-03-10T23:15:50.951Z,19.30
2024-03-10T23:18:26.646Z,17.60
2024-03-10T23:20:57.361Z,19.90
2024-03-10T23:23:26.421Z,18.30
2024-03-10T23:25:57.051Z,20.00
2024-03-10T23:28:25.393Z,17.30
2024-03-10T23:30:54.985Z,18.80
2024-03-10T23:33:23.591Z,18.50
2024-03-10T23:35:52.452Z,16.40
2024-03-10T23:38:20.985Z,16.50
2024-03-10T23:40:49.318Z,19.00
2024-03-10T23:43:18.383Z,17.50
2024-03-10T23:45:47.022Z,17.10
2024-03-10T23:48:15.479Z,17.00
2024-03-10T23:50:44.932Z,17.90
2024-03-10T23:53:14.741Z,15.40
2024-03-10T23:55:43.879Z,15.50
2024-03-10T23:58:15.131Z,16.10
